sensor_id;sensor_type;location;lat;lon;timestamp;pressure;altitude;pressure_sealevel;temperature;humidity
54900;BME280;40801;41.924;25.562;2023-05-01T00:00:23;99394.28;;;13.19;77.85
54900;BME280;40801;41.924;25.562;2023-05-01T00:02:49;99398.09;;;13.35;76.44
54900;BME280;40801;41.924;25.562;2023-05-01T00:05:14;99405.09;;;13.36;76.42
54900;BME280;40801;41.924;25.562;2023-05-01T00:07:39;99405.75;;;13.24;77.24
54900;BME280;40801;41.924;25.562;2023-05-01T00:10:05;99412.44;;;13.18;77.50
54900;BME280;40801;41.924;25.562;2023-05-01T00:12:31;99415.44;;;13.25;76.71
54900;BME280;40801;41.924;25.562;2023-05-01T00:14:56;99410.53;;;13.19;76.87
54900;BME280;40801;41.924;25.562;2023-05-01T00:17:22;99419.59;;;13.14;77.12
54900;BME280;40801;41.924;25.562;2023-05-01T00:19:54;99425.97;;;13.18;76.44
54900;BME280;40801;41.924;25.562;2023-05-01T00:22:19;99427.72;;;13.14;75.93
54900;BME280;40801;41.924;25.562;2023-05-01T00:24:45;99434.56;;;13.12;76.19
54900;BME280;40801;41.924;25.562;2023-05-01T00:27:13;99442.84;;;13.07;75.85
54900;BME280;40801;41.924;25.562;2023-05-01T00:29:38;99445.41;;;13.03;76.60
54900;BME280;40801;41.924;25.562;2023-05-01T00:32:04;99452.56;;;12.99;76.49
54900;BME280;40801;41.924;25.562;2023-05-01T00:34:29;99436.94;;;12.96;76.56
54900;BME280;40801;41.924;25.562;2023-05-01T00:36:55;99447.31;;;12.94;77.01
54900;BME280;40801;41.924;25.562;2023-05-01T00:39:20;99446.34;;;12.90;76.61
54900;BME280;40801;41.924;25.562;2023-05-01T00:41:46;99455.59;;;12.80;77.23
54900;BME280;40801;41.924;25.562;2023-05-01T00:44:11;99463.81;;;12.58;77.51
54900;BME280;40801;41.924;25.562;2023-05-01T00:46:37;99466.84;;;12.56;77.36
54900;BME280;40801;41.924;25.562;2023-05-01T00:49:03;99462.72;;;12.59;76.70
54900;BME280;40801;41.924;25.562;2023-05-01T00:51:28;99460.50;;;12.61;76.29
54900;BME280;40801;41.924;25.562;2023-05-01T00:53:56;99467.31;;;12.58;76.08
54900;BME280;40801;41.924;25.562;2023-05-01T00:56:23;99465.88;;;12.52;76.14
54900;BME280;40801;41.924;25.562;2023-05-01T00:58:50;99465.25;;;12.47;76.15
54900;BME280;40801;41.924;25.562;2023-05-01T01:01:21;99474.28;;;12.42;76.34
54900;BME280;40801;41.924;25.562;2023-05-01T01:03:48;99465.19;;;12.38;76.21
54900;BME280;40801;41.924;25.562;2023-05-01T01:06:23;99468.06;;;12.41;76.21
54900;BME280;40801;41.924;25.562;2023-05-01T01:11:56;99459.31;;;12.36;76.20
54900;BME280;40801;41.924;25.562;2023-05-01T01:20:53;99472.66;;;12.32;77.96
54900;BME280;40801;41.924;25.562;2023-05-01T01:23:41;99468.53;;;12.35;78.20
54900;BME280;40801;41.924;25.562;2023-05-01T01:32:19;99467.47;;;12.45;77.65
54900;BME280;40801;41.924;25.562;2023-05-01T01:35:00;99468.44;;;12.49;78.00
54900;BME280;40801;41.924;25.562;2023-05-01T01:37:42;99465.09;;;12.60;76.63
54900;BME280;40801;41.924;25.562;2023-05-01T01:40:10;99461.75;;;12.55;77.28
54900;BME280;40801;41.924;25.562;2023-05-01T01:42:40;99462.41;;;12.60;76.96
54900;BME280;40801;41.924;25.562;2023-05-01T01:45:11;99473.84;;;12.66;76.56
54900;BME280;40801;41.924;25.562;2023-05-01T01:47:40;99477.22;;;12.71;76.20
54900;BME280;40801;41.924;25.562;2023-05-01T01:50:07;99473.91;;;12.75;76.02
54900;BME280;40801;41.924;25.562;2023-05-01T01:52:35;99473.91;;;12.75;76.52
54900;BME280;40801;41.924;25.562;2023-05-01T01:55:05;99470.56;;;12.78;76.19
54900;BME280;40801;41.924;25.562;2023-05-01T01:57:33;99463.38;;;12.73;76.44
54900;BME280;40801;41.924;25.562;2023-05-01T02:00:00;99467.53;;;12.79;75.63
54900;BME280;40801;41.924;25.562;2023-05-01T02:02:26;99465.78;;;12.83;75.33
54900;BME280;40801;41.924;25.562;2023-05-01T02:04:53;99465.78;;;12.83;75.20
54900;BME280;40801;41.924;25.562;2023-05-01T02:07:21;99462.91;;;12.80;75.31
54900;BME280;40801;41.924;25.562;2023-05-01T02:09:49;99464.78;;;12.70;76.51
54900;BME280;40801;41.924;25.562;2023-05-01T02:12:17;99470.53;;;12.69;76.77
54900;BME280;40801;41.924;25.562;2023-05-01T02:14:44;99468.28;;;12.62;77.26
54900;BME280;40801;41.924;25.562;2023-05-01T02:17:12;99461.59;;;12.60;77.29
54900;BME280;40801;41.924;25.562;2023-05-01T02:19:38;99474.16;;;12.56;77.96
54900;BME280;40801;41.924;25.562;2023-05-01T02:22:07;99471.31;;;12.52;78.51
54900;BME280;40801;41.924;25.562;2023-05-01T02:24:34;99471.63;;;12.51;78.46
54900;BME280;40801;41.924;25.562;2023-05-01T02:27:06;99472.25;;;12.48;78.58
54900;BME280;40801;41.924;25.562;2023-05-01T02:29:34;99474.97;;;12.48;78.36
54900;BME280;40801;41.924;25.562;2023-05-01T02:31:59;99481.00;;;12.45;78.04
54900;BME280;40801;41.924;25.562;2023-05-01T02:34:25;99488.59;;;12.43;78.29
54900;BME280;40801;41.924;25.562;2023-05-01T02:36:51;99486.34;;;12.36;78.47
54900;BME280;40801;41.924;25.562;2023-05-01T02:39:16;99498.78;;;12.37;78.05
54900;BME280;40801;41.924;25.562;2023-05-01T02:41:43;99500.50;;;12.33;78.13
54900;BME280;40801;41.924;25.562;2023-05-01T02:44:10;99501.00;;;12.35;77.33
54900;BME280;40801;41.924;25.562;2023-05-01T02:46:37;99507.34;;;12.30;77.93
54900;BME280;40801;41.924;25.562;2023-05-01T02:49:07;99510.19;;;12.25;78.89
54900;BME280;40801;41.924;25.562;2023-05-01T02:51:34;99511.31;;;12.24;78.40
54900;BME280;40801;41.924;25.562;2023-05-01T02:54:01;99515.44;;;12.22;78.71
54900;BME280;40801;41.924;25.562;2023-05-01T02:56:27;99511.94;;;12.21;78.49
54900;BME280;40801;41.924;25.562;2023-05-01T02:58:53;99520.22;;;12.25;77.77
54900;BME280;40801;41.924;25.562;2023-05-01T03:01:19;99521.47;;;12.19;77.40
54900;BME280;40801;41.924;25.562;2023-05-01T03:03:45;99524.16;;;12.19;77.22
54900;BME280;40801;41.924;25.562;2023-05-01T03:06:10;99524.28;;;12.14;77.70
54900;BME280;40801;41.924;25.562;2023-05-01T03:08:36;99522.97;;;12.02;78.28
54900;BME280;40801;41.924;25.562;2023-05-01T03:11:07;99536.00;;;12.00;79.24
54900;BME280;40801;41.924;25.562;2023-05-01T03:13:34;99533.75;;;11.94;79.60
54900;BME280;40801;41.924;25.562;2023-05-01T03:16:00;99536.94;;;11.96;79.72
54900;BME280;40801;41.924;25.562;2023-05-01T03:18:25;99534.09;;;12.01;79.72
54900;BME280;40801;41.924;25.562;2023-05-01T03:20:51;99550.78;;;12.03;79.97
54900;BME280;40801;41.924;25.562;2023-05-01T03:23:21;99547.78;;;12.04;80.40
54900;BME280;40801;41.924;25.562;2023-05-01T03:25:47;99540.94;;;12.07;79.19
54900;BME280;40801;41.924;25.562;2023-05-01T03:28:13;99544.13;;;12.09;78.36
54900;BME280;40801;41.924;25.562;2023-05-01T03:30:38;99543.16;;;12.05;78.05
54900;BME280;40801;41.924;25.562;2023-05-01T03:33:03;99543.97;;;12.05;77.93
54900;BME280;40801;41.924;25.562;2023-05-01T03:35:29;99543.94;;;11.97;78.43
54900;BME280;40801;41.924;25.562;2023-05-01T03:37:54;99556.78;;;11.91;78.96
54900;BME280;40801;41.924;25.562;2023-05-01T03:40:20;99553.22;;;11.82;79.51
54900;BME280;40801;41.924;25.562;2023-05-01T03:42:46;99557.00;;;11.81;79.91
54900;BME280;40801;41.924;25.562;2023-05-01T03:45:11;99548.91;;;11.81;79.22
54900;BME280;40801;41.924;25.562;2023-05-01T03:47:36;99560.50;;;11.82;79.46
54900;BME280;40801;41.924;25.562;2023-05-01T03:50:02;99552.91;;;11.84;79.18
54900;BME280;40801;41.924;25.562;2023-05-01T03:52:28;99554.63;;;11.79;79.58
54900;BME280;40801;41.924;25.562;2023-05-01T03:54:53;99557.31;;;11.79;80.02
54900;BME280;40801;41.924;25.562;2023-05-01T03:57:19;99564.31;;;11.81;79.66
54900;BME280;40801;41.924;25.562;2023-05-01T03:59:48;99563.03;;;11.78;80.25
54900;BME280;40801;41.924;25.562;2023-05-01T04:02:13;99564.41;;;11.75;80.44
54900;BME280;40801;41.924;25.562;2023-05-01T04:04:39;99553.91;;;11.88;79.00
54900;BME280;40801;41.924;25.562;2023-05-01T04:07:04;99557.09;;;11.90;79.56
54900;BME280;40801;41.924;25.562;2023-05-01T04:09:30;99567.28;;;11.93;79.44
54900;BME280;40801;41.924;25.562;2023-05-01T04:11:55;99563.34;;;11.99;79.60
54900;BME280;40801;41.924;25.562;2023-05-01T04:14:21;99571.78;;;12.06;79.26
54900;BME280;40801;41.924;25.562;2023-05-01T04:16:46;99575.59;;;12.05;79.66
54900;BME280;40801;41.924;25.562;2023-05-01T04:19:12;99576.25;;;12.10;79.52
54900;BME280;40801;41.924;25.562;2023-05-01T04:21:37;99569.03;;;12.20;78.96
54900;BME280;40801;41.924;25.562;2023-05-01T04:24:03;99577.78;;;12.25;79.95
54900;BME280;40801;41.924;25.562;2023-05-01T04:26:29;99580.38;;;12.39;79.68
54900;BME280;40801;41.924;25.562;2023-05-01T04:28:54;99576.94;;;12.47;79.31
54900;BME280;40801;41.924;25.562;2023-05-01T04:31:19;99584.28;;;12.55;78.87
54900;BME280;40801;41.924;25.562;2023-05-01T04:33:45;99578.28;;;12.67;78.86
54900;BME280;40801;41.924;25.562;2023-05-01T04:36:11;99586.44;;;12.84;77.91
54900;BME280;40801;41.924;25.562;2023-05-01T04:38:36;99593.13;;;12.87;78.00
54900;BME280;40801;41.924;25.562;2023-05-01T04:41:03;99600.53;;;13.03;77.14
54900;BME280;40801;41.924;25.562;2023-05-01T04:43:29;99597.19;;;13.07;76.48
54900;BME280;40801;41.924;25.562;2023-05-01T04:45:54;99600.22;;;13.05;76.85
54900;BME280;40801;41.924;25.562;2023-05-01T04:48:20;99607.41;;;13.18;75.82
54900;BME280;40801;41.924;25.562;2023-05-01T04:50:45;99610.13;;;13.18;76.17
54900;BME280;40801;41.924;25.562;2023-05-01T04:53:11;99606.63;;;13.26;76.47
54900;BME280;40801;41.924;25.562;2023-05-01T04:55:36;99614.63;;;13.31;76.56
54900;BME280;40801;41.924;25.562;2023-05-01T04:58:01;99606.97;;;13.42;75.74
54900;BME280;40801;41.924;25.562;2023-05-01T05:00:29;99608.59;;;13.60;75.55
54900;BME280;40801;41.924;25.562;2023-05-01T05:02:55;99621.00;;;13.79;74.26
54900;BME280;40801;41.924;25.562;2023-05-01T05:05:20;99625.31;;;13.88;74.00
54900;BME280;40801;41.924;25.562;2023-05-01T05:07:46;99626.56;;;14.00;73.12
54900;BME280;40801;41.924;25.562;2023-05-01T05:10:12;99627.19;;;14.05;73.53
54900;BME280;40801;41.924;25.562;2023-05-01T05:12:38;99619.22;;;14.17;73.32
54900;BME280;40801;41.924;25.562;2023-05-01T05:15:03;99628.09;;;14.35;72.78
54900;BME280;40801;41.924;25.562;2023-05-01T05:17:29;99622.03;;;14.47;71.94
54900;BME280;40801;41.924;25.562;2023-05-01T05:19:54;99633.19;;;14.54;71.68
54900;BME280;40801;41.924;25.562;2023-05-01T05:22:20;99632.16;;;14.67;71.43
54900;BME280;40801;41.924;25.562;2023-05-01T05:24:45;99630.06;;;14.73;71.39
54900;BME280;40801;41.924;25.562;2023-05-01T05:27:11;99616.72;;;14.88;70.42
54900;BME280;40801;41.924;25.562;2023-05-01T05:29:36;99625.28;;;14.99;70.04
54900;BME280;40801;41.924;25.562;2023-05-01T05:32:01;99636.28;;;15.11;68.87
54900;BME280;40801;41.924;25.562;2023-05-01T05:34:27;99637.00;;;15.21;68.60
54900;BME280;40801;41.924;25.562;2023-05-01T05:36:53;99632.31;;;15.30;67.89
54900;BME280;40801;41.924;25.562;2023-05-01T05:39:20;99640.22;;;15.43;67.08
54900;BME280;40801;41.924;25.562;2023-05-01T05:41:47;99643.00;;;15.56;66.68
54900;BME280;40801;41.924;25.562;2023-05-01T05:44:13;99636.44;;;15.57;67.02
54900;BME280;40801;41.924;25.562;2023-05-01T05:46:39;99650.72;;;15.74;66.41
54900;BME280;40801;41.924;25.562;2023-05-01T05:49:04;99648.81;;;15.96;66.15
54900;BME280;40801;41.924;25.562;2023-05-01T05:51:30;99646.09;;;15.96;65.89
54900;BME280;40801;41.924;25.562;2023-05-01T05:53:56;99647.84;;;16.13;65.20
54900;BME280;40801;41.924;25.562;2023-05-01T05:56:21;99647.66;;;16.30;65.05
54900;BME280;40801;41.924;25.562;2023-05-01T05:58:48;99647.69;;;16.42;64.54
54900;BME280;40801;41.924;25.562;2023-05-01T06:01:14;99653.28;;;16.58;64.59
54900;BME280;40801;41.924;25.562;2023-05-01T06:03:39;99658.91;;;16.73;64.46
54900;BME280;40801;41.924;25.562;2023-05-01T06:06:05;99655.41;;;16.97;63.94
54900;BME280;40801;41.924;25.562;2023-05-01T06:08:30;99648.94;;;17.14;63.40
54900;BME280;40801;41.924;25.562;2023-05-01T06:10:56;99656.41;;;17.42;62.28
54900;BME280;40801;41.924;25.562;2023-05-01T06:13:23;99656.91;;;17.59;61.77
54900;BME280;40801;41.924;25.562;2023-05-01T06:15:48;99663.38;;;17.79;60.93
54900;BME280;40801;41.924;25.562;2023-05-01T06:18:14;99664.00;;;18.01;60.92
54900;BME280;40801;41.924;25.562;2023-05-01T06:20:40;99672.22;;;18.16;59.49
54900;BME280;40801;41.924;25.562;2023-05-01T06:23:05;99667.78;;;18.24;59.08
54900;BME280;40801;41.924;25.562;2023-05-01T06:25:32;99676.13;;;18.59;58.35
54900;BME280;40801;41.924;25.562;2023-05-01T06:27:58;99679.06;;;18.66;57.90
54900;BME280;40801;41.924;25.562;2023-05-01T06:30:23;99680.38;;;18.72;57.55
54900;BME280;40801;41.924;25.562;2023-05-01T06:32:48;99687.53;;;18.93;57.62
54900;BME280;40801;41.924;25.562;2023-05-01T06:35:14;99683.31;;;19.11;57.12
54900;BME280;40801;41.924;25.562;2023-05-01T06:37:40;99689.09;;;19.25;57.09
54900;BME280;40801;41.924;25.562;2023-05-01T06:40:07;99686.06;;;19.46;56.59
54900;BME280;40801;41.924;25.562;2023-05-01T06:42:34;99678.78;;;19.69;55.57
54900;BME280;40801;41.924;25.562;2023-05-01T06:45:00;99683.31;;;19.62;56.46
54900;BME280;40801;41.924;25.562;2023-05-01T06:47:25;99680.81;;;19.92;55.82
54900;BME280;40801;41.924;25.562;2023-05-01T06:49:51;99686.28;;;20.11;55.84
54900;BME280;40801;41.924;25.562;2023-05-01T06:52:16;99688.38;;;20.56;55.24
54900;BME280;40801;41.924;25.562;2023-05-01T06:54:41;99694.53;;;20.95;53.91
54900;BME280;40801;41.924;25.562;2023-05-01T06:57:07;99690.44;;;21.31;53.28
54900;BME280;40801;41.924;25.562;2023-05-01T06:59:32;99692.09;;;20.90;53.09
54900;BME280;40801;41.924;25.562;2023-05-01T07:01:58;99694.00;;;21.36;52.58
54900;BME280;40801;41.924;25.562;2023-05-01T07:04:23;99697.16;;;21.64;51.24
54900;BME280;40801;41.924;25.562;2023-05-01T07:06:49;99696.59;;;21.78;51.55
54900;BME280;40801;41.924;25.562;2023-05-01T07:09:14;99693.44;;;22.06;50.67
54900;BME280;40801;41.924;25.562;2023-05-01T07:11:40;99695.06;;;22.10;49.50
54900;BME280;40801;41.924;25.562;2023-05-01T07:14:07;99701.72;;;22.43;48.72
54900;BME280;40801;41.924;25.562;2023-05-01T07:16:32;99715.00;;;22.37;46.73
54900;BME280;40801;41.924;25.562;2023-05-01T07:18:57;99702.50;;;22.10;46.15
54900;BME280;40801;41.924;25.562;2023-05-01T07:21:23;99706.91;;;22.18;46.22
54900;BME280;40801;41.924;25.562;2023-05-01T07:23:49;99714.84;;;22.60;46.26
54900;BME280;40801;41.924;25.562;2023-05-01T07:26:14;99711.34;;;22.63;45.50
54900;BME280;40801;41.924;25.562;2023-05-01T07:28:40;99716.34;;;22.88;44.57
54900;BME280;40801;41.924;25.562;2023-05-01T07:31:08;99708.91;;;22.92;43.03
54900;BME280;40801;41.924;25.562;2023-05-01T07:33:34;99708.72;;;23.18;41.87
54900;BME280;40801;41.924;25.562;2023-05-01T07:35:59;99718.41;;;23.49;40.85
54900;BME280;40801;41.924;25.562;2023-05-01T07:38:25;99717.25;;;23.54;41.56
54900;BME280;40801;41.924;25.562;2023-05-01T07:40:54;99723.41;;;23.95;40.74
54900;BME280;40801;41.924;25.562;2023-05-01T07:43:21;99717.59;;;24.21;40.65
54900;BME280;40801;41.924;25.562;2023-05-01T07:45:57;99720.94;;;24.77;40.49
54900;BME280;40801;41.924;25.562;2023-05-01T07:48:25;99725.72;;;25.08;40.12
54900;BME280;40801;41.924;25.562;2023-05-01T07:50:50;99716.25;;;25.27;38.95
54900;BME280;40801;41.924;25.562;2023-05-01T07:53:16;99733.19;;;25.54;39.09
54900;BME280;40801;41.924;25.562;2023-05-01T07:55:41;99733.97;;;25.83;38.31
54900;BME280;40801;41.924;25.562;2023-05-01T07:58:07;99721.63;;;26.12;37.28
54900;BME280;40801;41.924;25.562;2023-05-01T08:00:32;99723.69;;;25.87;37.36
54900;BME280;40801;41.924;25.562;2023-05-01T08:02:57;99720.72;;;26.30;37.66
54900;BME280;40801;41.924;25.562;2023-05-01T08:05:23;99729.50;;;26.14;37.33
54900;BME280;40801;41.924;25.562;2023-05-01T08:07:48;99732.22;;;26.21;37.07
54900;BME280;40801;41.924;25.562;2023-05-01T08:10:14;99730.59;;;26.41;36.87
54900;BME280;40801;41.924;25.562;2023-05-01T08:12:39;99727.28;;;26.68;36.69
54900;BME280;40801;41.924;25.562;2023-05-01T08:15:05;99725.31;;;27.24;35.85
54900;BME280;40801;41.924;25.562;2023-05-01T08:17:31;99728.47;;;26.67;35.37
54900;BME280;40801;41.924;25.562;2023-05-01T08:19:57;99736.94;;;27.04;35.00
54900;BME280;40801;41.924;25.562;2023-05-01T08:22:23;99735.56;;;27.27;35.13
54900;BME280;40801;41.924;25.562;2023-05-01T08:24:49;99736.34;;;27.72;34.42
54900;BME280;40801;41.924;25.562;2023-05-01T08:27:15;99739.03;;;27.38;34.16
54900;BME280;40801;41.924;25.562;2023-05-01T08:29:40;99732.22;;;27.50;33.06
54900;BME280;40801;41.924;25.562;2023-05-01T08:32:06;99728.69;;;27.87;32.96
54900;BME280;40801;41.924;25.562;2023-05-01T08:34:31;99733.19;;;28.07;32.84
54900;BME280;40801;41.924;25.562;2023-05-01T08:36:58;99729.47;;;28.52;32.86
54900;BME280;40801;41.924;25.562;2023-05-01T08:39:23;99734.03;;;28.38;30.95
54900;BME280;40801;41.924;25.562;2023-05-01T08:41:49;99740.16;;;28.19;32.74
54900;BME280;40801;41.924;25.562;2023-05-01T08:44:15;99737.94;;;28.41;32.68
54900;BME280;40801;41.924;25.562;2023-05-01T08:49:24;99733.69;;;28.63;32.37
54900;BME280;40801;41.924;25.562;2023-05-01T08:51:52;99745.22;;;28.89;32.50
54900;BME280;40801;41.924;25.562;2023-05-01T08:54:22;99748.03;;;29.12;32.33
54900;BME280;40801;41.924;25.562;2023-05-01T08:56:50;99738.50;;;28.86;31.75
54900;BME280;40801;41.924;25.562;2023-05-01T08:59:17;99739.09;;;29.24;31.46
54900;BME280;40801;41.924;25.562;2023-05-01T09:01:45;99737.50;;;29.70;30.47
54900;BME280;40801;41.924;25.562;2023-05-01T09:04:12;99737.38;;;29.57;31.58
54900;BME280;40801;41.924;25.562;2023-05-01T09:06:38;99731.56;;;29.48;31.96
54900;BME280;40801;41.924;25.562;2023-05-01T09:09:04;99729.44;;;29.33;32.09
54900;BME280;40801;41.924;25.562;2023-05-01T09:11:30;99719.03;;;29.37;31.45
54900;BME280;40801;41.924;25.562;2023-05-01T09:13:56;99727.25;;;29.44;30.80
54900;BME280;40801;41.924;25.562;2023-05-01T09:16:22;99725.81;;;29.12;31.27
54900;BME280;40801;41.924;25.562;2023-05-01T09:18:47;99710.84;;;29.06;31.17
54900;BME280;40801;41.924;25.562;2023-05-01T09:21:13;99719.91;;;29.57;30.96
54900;BME280;40801;41.924;25.562;2023-05-01T09:23:38;99722.19;;;30.02;30.76
54900;BME280;40801;41.924;25.562;2023-05-01T09:26:05;99715.44;;;30.42;29.94
54900;BME280;40801;41.924;25.562;2023-05-01T09:28:44;99715.16;;;30.73;28.35
54900;BME280;40801;41.924;25.562;2023-05-01T09:31:20;99711.00;;;30.25;28.88
54900;BME280;40801;41.924;25.562;2023-05-01T09:34:00;99707.16;;;29.99;27.51
54900;BME280;40801;41.924;25.562;2023-05-01T09:36:28;99709.53;;;30.57;28.89
54900;BME280;40801;41.924;25.562;2023-05-01T09:38:58;99709.22;;;30.35;29.28
54900;BME280;40801;41.924;25.562;2023-05-01T09:41:27;99708.84;;;30.33;28.97
54900;BME280;40801;41.924;25.562;2023-05-01T09:43:54;99704.75;;;30.57;27.98
54900;BME280;40801;41.924;25.562;2023-05-01T09:46:21;99706.66;;;29.41;27.70
54900;BME280;40801;41.924;25.562;2023-05-01T09:48:57;99709.91;;;30.03;26.66
54900;BME280;40801;41.924;25.562;2023-05-01T09:51:33;99714.13;;;30.47;26.69
54900;BME280;40801;41.924;25.562;2023-05-01T09:54:00;99715.03;;;30.60;26.37
54900;BME280;40801;41.924;25.562;2023-05-01T09:56:30;99708.13;;;31.01;26.55
54900;BME280;40801;41.924;25.562;2023-05-01T09:58:58;99702.81;;;31.06;25.67
54900;BME280;40801;41.924;25.562;2023-05-01T10:01:41;99710.31;;;31.26;24.22
54900;BME280;40801;41.924;25.562;2023-05-01T10:04:07;99703.22;;;31.37;24.67
54900;BME280;40801;41.924;25.562;2023-05-01T10:06:34;99696.09;;;31.82;24.54
54900;BME280;40801;41.924;25.562;2023-05-01T10:09:00;99710.78;;;30.36;24.40
54900;BME280;40801;41.924;25.562;2023-05-01T10:11:26;99706.09;;;30.85;22.98
54900;BME280;40801;41.924;25.562;2023-05-01T10:14:08;99699.75;;;31.33;22.90
54900;BME280;40801;41.924;25.562;2023-05-01T10:16:36;99690.75;;;31.42;23.20
54900;BME280;40801;41.924;25.562;2023-05-01T10:19:02;99695.66;;;31.38;23.52
54900;BME280;40801;41.924;25.562;2023-05-01T10:21:29;99686.50;;;31.83;22.84
54900;BME280;40801;41.924;25.562;2023-05-01T10:23:56;99692.81;;;32.12;22.04
54900;BME280;40801;41.924;25.562;2023-05-01T10:26:21;99699.00;;;32.58;22.25
54900;BME280;40801;41.924;25.562;2023-05-01T10:28:48;99690.97;;;32.73;21.78
54900;BME280;40801;41.924;25.562;2023-05-01T10:31:14;99689.41;;;32.97;21.73
54900;BME280;40801;41.924;25.562;2023-05-01T10:33:41;99686.06;;;32.77;23.52
54900;BME280;40801;41.924;25.562;2023-05-01T10:36:16;99693.97;;;33.04;22.81
54900;BME280;40801;41.924;25.562;2023-05-01T10:38:43;99686.31;;;32.82;23.87
54900;BME280;40801;41.924;25.562;2023-05-01T10:41:15;99690.97;;;32.47;23.73
54900;BME280;40801;41.924;25.562;2023-05-01T10:43:41;99695.84;;;31.31;23.71
54900;BME280;40801;41.924;25.562;2023-05-01T10:51:13;99692.03;;;29.60;25.92
54900;BME280;40801;41.924;25.562;2023-05-01T10:53:44;99700.31;;;29.17;26.93
54900;BME280;40801;41.924;25.562;2023-05-01T10:58:59;99699.41;;;28.16;27.66
54900;BME280;40801;41.924;25.562;2023-05-01T11:01:35;99706.34;;;27.63;29.47
54900;BME280;40801;41.924;25.562;2023-05-01T11:06:29;99710.78;;;27.09;29.21
54900;BME280;40801;41.924;25.562;2023-05-01T11:08:55;99717.88;;;26.51;29.54
54900;BME280;40801;41.924;25.562;2023-05-01T11:13:59;99706.16;;;26.95;29.50
54900;BME280;40801;41.924;25.562;2023-05-01T11:19:07;99714.44;;;28.19;28.08
54900;BME280;40801;41.924;25.562;2023-05-01T11:21:37;99706.81;;;28.26;26.44
54900;BME280;40801;41.924;25.562;2023-05-01T11:24:08;99699.59;;;29.13;26.80
54900;BME280;40801;41.924;25.562;2023-05-01T11:26:38;99707.50;;;30.41;24.72
54900;BME280;40801;41.924;25.562;2023-05-01T11:29:04;99704.28;;;30.78;25.17
54900;BME280;40801;41.924;25.562;2023-05-01T11:31:31;99696.09;;;31.82;24.08
54900;BME280;40801;41.924;25.562;2023-05-01T11:33:57;99700.13;;;32.48;23.51
54900;BME280;40801;41.924;25.562;2023-05-01T11:36:23;99698.69;;;32.81;22.94
54900;BME280;40801;41.924;25.562;2023-05-01T11:38:53;99694.69;;;32.82;22.79
54900;BME280;40801;41.924;25.562;2023-05-01T11:41:21;99701.63;;;33.38;22.85
54900;BME280;40801;41.924;25.562;2023-05-01T11:43:54;99681.56;;;33.74;22.50
54900;BME280;40801;41.924;25.562;2023-05-01T11:46:28;99682.81;;;34.16;20.30
54900;BME280;40801;41.924;25.562;2023-05-01T11:48:55;99690.44;;;33.94;21.89
54900;BME280;40801;41.924;25.562;2023-05-01T11:51:21;99690.78;;;33.40;22.09
54900;BME280;40801;41.924;25.562;2023-05-01T11:54:07;99693.38;;;31.78;23.21
54900;BME280;40801;41.924;25.562;2023-05-01T11:56:34;99684.91;;;30.55;24.04
54900;BME280;40801;41.924;25.562;2023-05-01T11:59:11;99692.91;;;30.17;24.68
54900;BME280;40801;41.924;25.562;2023-05-01T12:01:39;99690.81;;;31.26;24.57
54900;BME280;40801;41.924;25.562;2023-05-01T12:04:06;99677.72;;;30.90;24.43
54900;BME280;40801;41.924;25.562;2023-05-01T12:06:37;99689.09;;;30.27;25.38
54900;BME280;40801;41.924;25.562;2023-05-01T12:09:05;99683.34;;;30.18;25.37
54900;BME280;40801;41.924;25.562;2023-05-01T12:11:33;99678.34;;;30.81;25.65
54900;BME280;40801;41.924;25.562;2023-05-01T12:14:01;99674.69;;;31.33;25.36
54900;BME280;40801;41.924;25.562;2023-05-01T12:16:27;99670.59;;;32.21;24.74
54900;BME280;40801;41.924;25.562;2023-05-01T12:18:54;99671.31;;;33.02;23.98
54900;BME280;40801;41.924;25.562;2023-05-01T12:21:19;99668.53;;;33.36;23.18
54900;BME280;40801;41.924;25.562;2023-05-01T12:23:45;99681.03;;;32.84;23.16
54900;BME280;40801;41.924;25.562;2023-05-01T12:26:21;99665.47;;;33.43;22.92
54900;BME280;40801;41.924;25.562;2023-05-01T12:28:58;99664.97;;;33.79;21.83
54900;BME280;40801;41.924;25.562;2023-05-01T12:31:24;99676.63;;;33.78;22.19
54900;BME280;40801;41.924;25.562;2023-05-01T12:36:32;99663.53;;;33.75;21.15
54900;BME280;40801;41.924;25.562;2023-05-01T12:39:02;99661.72;;;33.81;21.86
54900;BME280;40801;41.924;25.562;2023-05-01T12:41:33;99667.91;;;33.98;21.18
54900;BME280;40801;41.924;25.562;2023-05-01T12:43:59;99661.19;;;34.17;21.71
54900;BME280;40801;41.924;25.562;2023-05-01T12:46:25;99672.44;;;34.66;21.13
54900;BME280;40801;41.924;25.562;2023-05-01T12:48:51;99665.22;;;33.85;21.41
54900;BME280;40801;41.924;25.562;2023-05-01T12:51:19;99664.75;;;33.17;21.39
54900;BME280;40801;41.924;25.562;2023-05-01T12:53:45;99670.72;;;33.07;21.55
54900;BME280;40801;41.924;25.562;2023-05-01T12:56:20;99668.84;;;32.91;21.44
54900;BME280;40801;41.924;25.562;2023-05-01T12:58:49;99663.25;;;32.78;21.92
54900;BME280;40801;41.924;25.562;2023-05-01T13:01:27;99663.72;;;33.37;20.81
54900;BME280;40801;41.924;25.562;2023-05-01T13:03:53;99664.50;;;32.26;21.66
54900;BME280;40801;41.924;25.562;2023-05-01T13:06:29;99663.84;;;31.81;22.11
54900;BME280;40801;41.924;25.562;2023-05-01T13:09:06;99664.84;;;31.29;22.65
54900;BME280;40801;41.924;25.562;2023-05-01T13:11:33;99679.31;;;30.39;23.69
54900;BME280;40801;41.924;25.562;2023-05-01T13:14:06;99670.44;;;29.68;24.78
54900;BME280;40801;41.924;25.562;2023-05-01T13:16:32;99670.25;;;29.12;25.77
54900;BME280;40801;41.924;25.562;2023-05-01T13:18:57;99670.94;;;29.63;25.82
54900;BME280;40801;41.924;25.562;2023-05-01T13:21:23;99664.81;;;30.11;25.55
54900;BME280;40801;41.924;25.562;2023-05-01T13:26:33;99667.59;;;29.72;25.30
54900;BME280;40801;41.924;25.562;2023-05-01T13:29:02;99661.25;;;29.71;25.09